Pagina principale
METAR-TAF:

METAR-TAF

Aeroporti :

Pian Rosa, Italia

latitudine: 45-56N, longitudine: 007-42E, altezza: 3480 m

Osservazione

Il bollettino è stato emesso 1 ora e 2 minuti fa, alle 04:55 UTC
Vento 11 kt da sud/sud-est
Temperature -8°C
Umidità 92%
Pressione 1007 hPa
Visibilità: 0800 m
nebbia che ghiaccia

METAR: LIMH 210455Z 16011KT 0800 FZFG VV/// M08/M09 Q1007 RMK MON INVIS VAL INVIS VIS MIN 0800

Ora: 06:57 (05:57 UTC)


TAF: mancante

Osservazioni e previsioni meteorologiche di più di 4000 aeroporti (messaggi METAR e TAF).

Le stazioni disponibili sono rappresentate dai dischi gialli e rossi sulla carta.

Puntare il mouse per vedere il nome della stazione.

Clicca sopra per visualizzare le osservazioni e previsioni meteorologiche.

Per cambiare la mappa : fare clic sui pulsanti verdi con una croce nera per ingrandire, il pulsante verde con un trattino per diminuire, o sulla freccia verde per le mappe adiacenti.


METAR-TAF: